sensor_id;sensor_type;location;lat;lon;timestamp;temperature;humidity
21616;DHT22;10970;48.714;9.584;2022-09-12T00:01:09;12.00;99.90
21616;DHT22;10970;48.714;9.584;2022-09-12T00:03:35;12.00;99.90
21616;DHT22;10970;48.714;9.584;2022-09-12T00:06:08;12.10;99.90
21616;DHT22;10970;48.714;9.584;2022-09-12T00:08:34;12.10;99.90
21616;DHT22;10970;48.714;9.584;2022-09-12T00:11:04;12.00;99.90
21616;DHT22;10970;48.714;9.584;2022-09-12T00:13:29;12.00;99.90
21616;DHT22;10970;48.714;9.584;2022-09-12T00:15:55;11.90;99.90
21616;DHT22;10970;48.714;9.584;2022-09-12T00:18:21;11.90;99.90
21616;DHT22;10970;48.714;9.584;2022-09-12T00:20:47;11.90;99.90
21616;DHT22;10970;48.714;9.584;2022-09-12T00:23:13;11.90;99.90
21616;DHT22;10970;48.714;9.584;2022-09-12T00:25:43;11.90;99.90
21616;DHT22;10970;48.714;9.584;2022-09-12T00:28:10;11.90;99.90
21616;DHT22;10970;48.714;9.584;2022-09-12T00:30:43;11.90;99.90
21616;DHT22;10970;48.714;9.584;2022-09-12T00:33:10;11.90;99.90
21616;DHT22;10970;48.714;9.584;2022-09-12T00:35:50;12.00;99.90
21616;DHT22;10970;48.714;9.584;2022-09-12T00:38:18;12.00;99.90
21616;DHT22;10970;48.714;9.584;2022-09-12T00:40:44;11.90;99.90
21616;DHT22;10970;48.714;9.584;2022-09-12T00:43:34;11.80;99.90
21616;DHT22;10970;48.714;9.584;2022-09-12T00:48:50;11.80;99.90
21616;DHT22;10970;48.714;9.584;2022-09-12T00:51:17;11.70;99.90
21616;DHT22;10970;48.714;9.584;2022-09-12T00:53:44;11.70;99.90
21616;DHT22;10970;48.714;9.584;2022-09-12T00:56:11;11.70;99.90
21616;DHT22;10970;48.714;9.584;2022-09-12T00:58:44;11.60;99.90
21616;DHT22;10970;48.714;9.584;2022-09-12T01:01:12;11.60;99.90
21616;DHT22;10970;48.714;9.584;2022-09-12T01:03:37;11.60;99.90
21616;DHT22;10970;48.714;9.584;2022-09-12T01:06:12;11.50;99.90
21616;DHT22;10970;48.714;9.584;2022-09-12T01:08:42;11.50;99.90
21616;DHT22;10970;48.714;9.584;2022-09-12T01:11:09;11.50;99.90
21616;DHT22;10970;48.714;9.584;2022-09-12T01:13:36;11.40;99.90
21616;DHT22;10970;48.714;9.584;2022-09-12T01:16:06;11.40;99.90
21616;DHT22;10970;48.714;9.584;2022-09-12T01:24:56;11.30;99.90
21616;DHT22;10970;48.714;9.584;2022-09-12T01:27:22;11.30;99.90
21616;DHT22;10970;48.714;9.584;2022-09-12T01:38:09;11.20;99.90
21616;DHT22;10970;48.714;9.584;2022-09-12T01:46:18;11.20;99.90
21616;DHT22;10970;48.714;9.584;2022-09-12T01:49:22;11.10;99.90
21616;DHT22;10970;48.714;9.584;2022-09-12T01:51:55;11.10;99.90
21616;DHT22;10970;48.714;9.584;2022-09-12T01:54:39;11.10;99.90
21616;DHT22;10970;48.714;9.584;2022-09-12T01:57:11;11.10;99.90
21616;DHT22;10970;48.714;9.584;2022-09-12T01:59:46;11.10;99.90
21616;DHT22;10970;48.714;9.584;2022-09-12T02:02:37;11.10;99.90
21616;DHT22;10970;48.714;9.584;2022-09-12T02:05:41;11.10;99.90
21616;DHT22;10970;48.714;9.584;2022-09-12T02:08:15;11.10;99.90
21616;DHT22;10970;48.714;9.584;2022-09-12T02:10:53;11.10;99.90
21616;DHT22;10970;48.714;9.584;2022-09-12T02:13:43;11.00;99.90
21616;DHT22;10970;48.714;9.584;2022-09-12T02:16:42;11.00;99.90
21616;DHT22;10970;48.714;9.584;2022-09-12T02:19:16;11.00;99.90
21616;DHT22;10970;48.714;9.584;2022-09-12T02:21:57;10.90;99.90
21616;DHT22;10970;48.714;9.584;2022-09-12T02:24:36;10.90;99.90
21616;DHT22;10970;48.714;9.584;2022-09-12T02:27:21;10.90;99.90
21616;DHT22;10970;48.714;9.584;2022-09-12T02:29:48;10.90;99.90
21616;DHT22;10970;48.714;9.584;2022-09-12T02:32:31;10.90;99.90
21616;DHT22;10970;48.714;9.584;2022-09-12T02:37:57;10.80;99.90
21616;DHT22;10970;48.714;9.584;2022-09-12T02:40:24;10.80;99.90
21616;DHT22;10970;48.714;9.584;2022-09-12T02:42:50;10.80;99.90
21616;DHT22;10970;48.714;9.584;2022-09-12T02:45:16;10.80;99.90
21616;DHT22;10970;48.714;9.584;2022-09-12T02:50:27;10.80;99.90
21616;DHT22;10970;48.714;9.584;2022-09-12T02:52:53;10.80;99.90
21616;DHT22;10970;48.714;9.584;2022-09-12T02:55:20;10.80;99.90
21616;DHT22;10970;48.714;9.584;2022-09-12T02:57:46;10.80;99.90
21616;DHT22;10970;48.714;9.584;2022-09-12T03:00:12;10.70;99.90
21616;DHT22;10970;48.714;9.584;2022-09-12T03:05:17;10.70;99.90
21616;DHT22;10970;48.714;9.584;2022-09-12T03:13:19;10.60;99.90
21616;DHT22;10970;48.714;9.584;2022-09-12T03:18:41;10.50;99.90
21616;DHT22;10970;48.714;9.584;2022-09-12T03:26:43;10.40;99.90
21616;DHT22;10970;48.714;9.584;2022-09-12T03:29:11;10.40;99.90
21616;DHT22;10970;48.714;9.584;2022-09-12T03:31:47;10.40;99.90
21616;DHT22;10970;48.714;9.584;2022-09-12T03:34:13;10.40;99.90
21616;DHT22;10970;48.714;9.584;2022-09-12T03:36:38;10.40;99.90
21616;DHT22;10970;48.714;9.584;2022-09-12T03:39:05;10.30;99.90
21616;DHT22;10970;48.714;9.584;2022-09-12T03:41:31;10.30;99.90
21616;DHT22;10970;48.714;9.584;2022-09-12T03:43:56;10.40;99.90
21616;DHT22;10970;48.714;9.584;2022-09-12T03:46:22;10.40;99.90
21616;DHT22;10970;48.714;9.584;2022-09-12T03:48:47;10.30;99.90
21616;DHT22;10970;48.714;9.584;2022-09-12T03:51:15;10.30;99.90
21616;DHT22;10970;48.714;9.584;2022-09-12T03:53:41;10.20;99.90
21616;DHT22;10970;48.714;9.584;2022-09-12T03:56:08;10.20;99.90
21616;DHT22;10970;48.714;9.584;2022-09-12T03:58:34;10.20;99.90
21616;DHT22;10970;48.714;9.584;2022-09-12T04:01:12;10.30;99.90
21616;DHT22;10970;48.714;9.584;2022-09-12T04:03:39;10.30;99.90
21616;DHT22;10970;48.714;9.584;2022-09-12T04:06:06;10.30;99.90
21616;DHT22;10970;48.714;9.584;2022-09-12T04:08:34;10.20;99.90
21616;DHT22;10970;48.714;9.584;2022-09-12T04:11:07;10.20;99.90
21616;DHT22;10970;48.714;9.584;2022-09-12T04:13:35;10.10;99.90
21616;DHT22;10970;48.714;9.584;2022-09-12T04:16:01;10.10;99.90
21616;DHT22;10970;48.714;9.584;2022-09-12T04:18:27;10.10;99.90
21616;DHT22;10970;48.714;9.584;2022-09-12T04:20:53;10.10;99.90
21616;DHT22;10970;48.714;9.584;2022-09-12T04:23:19;10.00;99.90
21616;DHT22;10970;48.714;9.584;2022-09-12T04:25:56;10.00;99.90
21616;DHT22;10970;48.714;9.584;2022-09-12T04:28:22;10.00;99.90
21616;DHT22;10970;48.714;9.584;2022-09-12T04:30:48;10.00;99.90
21616;DHT22;10970;48.714;9.584;2022-09-12T04:33:14;10.00;99.90
21616;DHT22;10970;48.714;9.584;2022-09-12T04:35:40;10.00;99.90
21616;DHT22;10970;48.714;9.584;2022-09-12T04:38:06;10.00;99.90
21616;DHT22;10970;48.714;9.584;2022-09-12T04:40:32;9.90;99.90
21616;DHT22;10970;48.714;9.584;2022-09-12T04:42:58;9.90;99.90
21616;DHT22;10970;48.714;9.584;2022-09-12T04:45:24;9.80;99.90
21616;DHT22;10970;48.714;9.584;2022-09-12T04:47:50;9.80;99.90
21616;DHT22;10970;48.714;9.584;2022-09-12T04:50:16;9.80;99.90
21616;DHT22;10970;48.714;9.584;2022-09-12T04:52:41;9.80;99.90
21616;DHT22;10970;48.714;9.584;2022-09-12T04:55:08;9.80;99.90
21616;DHT22;10970;48.714;9.584;2022-09-12T04:57:34;9.80;99.90
21616;DHT22;10970;48.714;9.584;2022-09-12T05:00:00;9.70;99.90
21616;DHT22;10970;48.714;9.584;2022-09-12T05:02:26;9.80;99.90
21616;DHT22;10970;48.714;9.584;2022-09-12T05:04:52;9.80;99.90
21616;DHT22;10970;48.714;9.584;2022-09-12T05:07:18;9.80;99.90
21616;DHT22;10970;48.714;9.584;2022-09-12T05:09:44;10.00;99.90
21616;DHT22;10970;48.714;9.584;2022-09-12T05:12:10;9.90;99.90
21616;DHT22;10970;48.714;9.584;2022-09-12T05:14:36;9.80;99.90
21616;DHT22;10970;48.714;9.584;2022-09-12T05:17:03;9.90;99.90
21616;DHT22;10970;48.714;9.584;2022-09-12T05:19:30;9.90;99.90
21616;DHT22;10970;48.714;9.584;2022-09-12T05:21:57;9.90;99.90
21616;DHT22;10970;48.714;9.584;2022-09-12T05:24:22;9.90;99.90
21616;DHT22;10970;48.714;9.584;2022-09-12T05:26:49;9.80;99.90
21616;DHT22;10970;48.714;9.584;2022-09-12T05:29:14;9.80;99.90
21616;DHT22;10970;48.714;9.584;2022-09-12T05:31:40;9.80;99.90
21616;DHT22;10970;48.714;9.584;2022-09-12T05:34:07;9.90;99.90
21616;DHT22;10970;48.714;9.584;2022-09-12T05:36:35;9.90;99.90
21616;DHT22;10970;48.714;9.584;2022-09-12T05:39:04;10.00;99.90
21616;DHT22;10970;48.714;9.584;2022-09-12T05:41:31;10.00;99.90
21616;DHT22;10970;48.714;9.584;2022-09-12T05:43:59;10.00;99.90
21616;DHT22;10970;48.714;9.584;2022-09-12T05:46:27;10.00;99.90
21616;DHT22;10970;48.714;9.584;2022-09-12T05:48:54;10.00;99.90
21616;DHT22;10970;48.714;9.584;2022-09-12T05:51:23;10.00;99.90
21616;DHT22;10970;48.714;9.584;2022-09-12T05:53:52;10.10;99.90
21616;DHT22;10970;48.714;9.584;2022-09-12T05:56:21;10.20;99.90
21616;DHT22;10970;48.714;9.584;2022-09-12T05:59:02;10.20;99.90
21616;DHT22;10970;48.714;9.584;2022-09-12T06:01:29;10.30;99.90
21616;DHT22;10970;48.714;9.584;2022-09-12T06:03:57;10.40;99.90
21616;DHT22;10970;48.714;9.584;2022-09-12T06:06:26;10.50;99.90
21616;DHT22;10970;48.714;9.584;2022-09-12T06:08:55;10.60;99.90
21616;DHT22;10970;48.714;9.584;2022-09-12T06:11:22;10.70;99.90
21616;DHT22;10970;48.714;9.584;2022-09-12T06:13:49;10.80;99.90
21616;DHT22;10970;48.714;9.584;2022-09-12T06:16:21;11.00;99.90
21616;DHT22;10970;48.714;9.584;2022-09-12T06:18:50;11.00;99.90
21616;DHT22;10970;48.714;9.584;2022-09-12T06:21:16;11.10;99.90
21616;DHT22;10970;48.714;9.584;2022-09-12T06:23:42;11.30;99.90
21616;DHT22;10970;48.714;9.584;2022-09-12T06:26:09;11.40;99.90
21616;DHT22;10970;48.714;9.584;2022-09-12T06:28:37;11.50;99.90
21616;DHT22;10970;48.714;9.584;2022-09-12T06:31:13;11.50;99.90
21616;DHT22;10970;48.714;9.584;2022-09-12T06:33:42;11.60;99.90
21616;DHT22;10970;48.714;9.584;2022-09-12T06:36:11;11.70;99.90
21616;DHT22;10970;48.714;9.584;2022-09-12T06:38:37;11.90;99.90
21616;DHT22;10970;48.714;9.584;2022-09-12T06:41:08;12.00;99.90
21616;DHT22;10970;48.714;9.584;2022-09-12T06:43:34;12.20;99.90
21616;DHT22;10970;48.714;9.584;2022-09-12T06:46:01;12.30;99.90
21616;DHT22;10970;48.714;9.584;2022-09-12T06:48:27;12.40;99.90
21616;DHT22;10970;48.714;9.584;2022-09-12T06:51:06;12.60;99.90
21616;DHT22;10970;48.714;9.584;2022-09-12T06:53:33;12.70;99.90
21616;DHT22;10970;48.714;9.584;2022-09-12T06:56:03;12.80;99.90
21616;DHT22;10970;48.714;9.584;2022-09-12T06:58:30;13.00;99.90
21616;DHT22;10970;48.714;9.584;2022-09-12T07:01:26;13.10;99.90
21616;DHT22;10970;48.714;9.584;2022-09-12T07:04:01;13.10;99.90
21616;DHT22;10970;48.714;9.584;2022-09-12T07:06:35;13.20;99.90
21616;DHT22;10970;48.714;9.584;2022-09-12T07:09:04;13.30;99.90
21616;DHT22;10970;48.714;9.584;2022-09-12T07:11:33;13.50;99.90
21616;DHT22;10970;48.714;9.584;2022-09-12T07:14:00;13.60;99.90
21616;DHT22;10970;48.714;9.584;2022-09-12T07:16:27;13.80;99.90
21616;DHT22;10970;48.714;9.584;2022-09-12T07:18:56;14.00;99.90
21616;DHT22;10970;48.714;9.584;2022-09-12T07:21:22;13.80;99.90
21616;DHT22;10970;48.714;9.584;2022-09-12T07:23:48;13.90;99.90
21616;DHT22;10970;48.714;9.584;2022-09-12T07:26:16;13.90;99.90
21616;DHT22;10970;48.714;9.584;2022-09-12T07:28:42;14.10;99.90
21616;DHT22;10970;48.714;9.584;2022-09-12T07:31:14;14.30;99.90
21616;DHT22;10970;48.714;9.584;2022-09-12T07:33:41;14.50;99.90
21616;DHT22;10970;48.714;9.584;2022-09-12T07:36:18;14.60;99.90
21616;DHT22;10970;48.714;9.584;2022-09-12T07:38:44;14.90;99.90
21616;DHT22;10970;48.714;9.584;2022-09-12T07:41:22;15.10;99.90
21616;DHT22;10970;48.714;9.584;2022-09-12T07:43:52;15.40;99.90
21616;DHT22;10970;48.714;9.584;2022-09-12T07:46:18;15.70;99.90
21616;DHT22;10970;48.714;9.584;2022-09-12T07:48:48;15.90;99.90
21616;DHT22;10970;48.714;9.584;2022-09-12T07:51:16;16.30;99.90
21616;DHT22;10970;48.714;9.584;2022-09-12T07:53:42;16.60;99.90
21616;DHT22;10970;48.714;9.584;2022-09-12T07:56:09;16.80;99.90
21616;DHT22;10970;48.714;9.584;2022-09-12T07:58:36;16.90;99.90
21616;DHT22;10970;48.714;9.584;2022-09-12T08:01:10;17.00;99.90
21616;DHT22;10970;48.714;9.584;2022-09-12T08:03:38;17.10;99.90
21616;DHT22;10970;48.714;9.584;2022-09-12T08:06:12;17.20;99.90
21616;DHT22;10970;48.714;9.584;2022-09-12T08:08:39;17.50;99.90
21616;DHT22;10970;48.714;9.584;2022-09-12T08:11:07;17.80;99.90
21616;DHT22;10970;48.714;9.584;2022-09-12T08:13:35;17.80;99.90
21616;DHT22;10970;48.714;9.584;2022-09-12T08:16:04;17.70;99.90
21616;DHT22;10970;48.714;9.584;2022-09-12T08:18:31;17.90;99.90
21616;DHT22;10970;48.714;9.584;2022-09-12T08:21:02;17.70;99.90
21616;DHT22;10970;48.714;9.584;2022-09-12T08:23:28;18.10;99.90
21616;DHT22;10970;48.714;9.584;2022-09-12T08:25:55;18.30;99.90
21616;DHT22;10970;48.714;9.584;2022-09-12T08:28:22;18.20;99.90
21616;DHT22;10970;48.714;9.584;2022-09-12T08:30:48;18.10;99.90
21616;DHT22;10970;48.714;9.584;2022-09-12T08:33:14;18.40;99.90
21616;DHT22;10970;48.714;9.584;2022-09-12T08:35:40;18.20;99.90
21616;DHT22;10970;48.714;9.584;2022-09-12T08:38:06;18.50;99.90
21616;DHT22;10970;48.714;9.584;2022-09-12T08:40:33;18.70;99.90
21616;DHT22;10970;48.714;9.584;2022-09-12T08:49:00;19.00;99.90
21616;DHT22;10970;48.714;9.584;2022-09-12T08:51:27;19.20;99.90
21616;DHT22;10970;48.714;9.584;2022-09-12T08:53:55;19.40;99.90
21616;DHT22;10970;48.714;9.584;2022-09-12T08:56:22;19.50;99.90
21616;DHT22;10970;48.714;9.584;2022-09-12T08:58:49;19.90;99.90
21616;DHT22;10970;48.714;9.584;2022-09-12T09:01:31;19.60;99.90
21616;DHT22;10970;48.714;9.584;2022-09-12T09:11:59;20.00;99.90
21616;DHT22;10970;48.714;9.584;2022-09-12T09:20:18;20.00;99.90
21616;DHT22;10970;48.714;9.584;2022-09-12T09:22:54;20.20;99.90
21616;DHT22;10970;48.714;9.584;2022-09-12T09:25:35;20.30;99.90
21616;DHT22;10970;48.714;9.584;2022-09-12T09:43:41;20.30;99.90
21616;DHT22;10970;48.714;9.584;2022-09-12T09:46:06;20.30;99.90
21616;DHT22;10970;48.714;9.584;2022-09-12T09:48:37;20.40;99.90
21616;DHT22;10970;48.714;9.584;2022-09-12T09:51:06;20.50;99.90
21616;DHT22;10970;48.714;9.584;2022-09-12T09:53:50;20.60;99.90
21616;DHT22;10970;48.714;9.584;2022-09-12T09:56:31;20.50;99.90
21616;DHT22;10970;48.714;9.584;2022-09-12T09:59:11;20.80;99.90
21616;DHT22;10970;48.714;9.584;2022-09-12T10:04:40;20.80;99.90
21616;DHT22;10970;48.714;9.584;2022-09-12T10:07:17;20.80;99.90
21616;DHT22;10970;48.714;9.584;2022-09-12T10:10:23;20.70;99.90
21616;DHT22;10970;48.714;9.584;2022-09-12T10:12:48;20.70;99.90
21616;DHT22;10970;48.714;9.584;2022-09-12T10:15:20;20.70;99.90
21616;DHT22;10970;48.714;9.584;2022-09-12T10:17:48;21.00;99.90
21616;DHT22;10970;48.714;9.584;2022-09-12T10:23:29;21.10;99.90
21616;DHT22;10970;48.714;9.584;2022-09-12T10:25:59;21.20;99.90
21616;DHT22;10970;48.714;9.584;2022-09-12T10:28:41;21.30;99.90
21616;DHT22;10970;48.714;9.584;2022-09-12T10:31:15;21.30;99.90
21616;DHT22;10970;48.714;9.584;2022-09-12T10:33:46;21.20;99.90
21616;DHT22;10970;48.714;9.584;2022-09-12T10:36:18;21.30;99.90
21616;DHT22;10970;48.714;9.584;2022-09-12T10:38:57;21.40;99.90
21616;DHT22;10970;48.714;9.584;2022-09-12T10:41:23;21.50;99.90
21616;DHT22;10970;48.714;9.584;2022-09-12T10:43:50;21.50;99.90
21616;DHT22;10970;48.714;9.584;2022-09-12T10:46:19;21.60;99.90
21616;DHT22;10970;48.714;9.584;2022-09-12T10:48:50;21.60;99.90
21616;DHT22;10970;48.714;9.584;2022-09-12T10:51:36;21.60;99.90
21616;DHT22;10970;48.714;9.584;2022-09-12T10:54:04;21.50;99.90
21616;DHT22;10970;48.714;9.584;2022-09-12T10:59:57;21.50;99.90
21616;DHT22;10970;48.714;9.584;2022-09-12T11:07:58;21.80;99.90
21616;DHT22;10970;48.714;9.584;2022-09-12T11:10:59;22.00;99.90
21616;DHT22;10970;48.714;9.584;2022-09-12T11:18:56;21.70;99.90
21616;DHT22;10970;48.714;9.584;2022-09-12T11:21:56;22.10;99.90
21616;DHT22;10970;48.714;9.584;2022-09-12T11:24:29;22.10;99.90
21616;DHT22;10970;48.714;9.584;2022-09-12T11:29:49;22.30;99.90
21616;DHT22;10970;48.714;9.584;2022-09-12T11:35:10;22.30;99.90
21616;DHT22;10970;48.714;9.584;2022-09-12T11:40:55;22.20;99.90
21616;DHT22;10970;48.714;9.584;2022-09-12T11:48:56;22.20;99.90
21616;DHT22;10970;48.714;9.584;2022-09-12T11:51:28;22.40;99.90
21616;DHT22;10970;48.714;9.584;2022-09-12T11:56:30;22.40;99.90
21616;DHT22;10970;48.714;9.584;2022-09-12T11:59:02;22.50;99.90
21616;DHT22;10970;48.714;9.584;2022-09-12T12:01:37;22.70;99.90
21616;DHT22;10970;48.714;9.584;2022-09-12T12:04:10;22.50;99.90
21616;DHT22;10970;48.714;9.584;2022-09-12T12:06:48;22.40;99.90
21616;DHT22;10970;48.714;9.584;2022-09-12T12:09:17;22.50;99.90
21616;DHT22;10970;48.714;9.584;2022-09-12T12:11:47;22.60;99.90
21616;DHT22;10970;48.714;9.584;2022-09-12T12:14:22;22.70;99.90
21616;DHT22;10970;48.714;9.584;2022-09-12T12:16:49;22.70;99.90
21616;DHT22;10970;48.714;9.584;2022-09-12T12:21:50;22.80;99.90
21616;DHT22;10970;48.714;9.584;2022-09-12T12:24:24;22.60;99.90
21616;DHT22;10970;48.714;9.584;2022-09-12T12:27:03;22.40;99.90
21616;DHT22;10970;48.714;9.584;2022-09-12T12:29:37;22.70;99.90
21616;DHT22;10970;48.714;9.584;2022-09-12T12:34:36;22.60;99.90
21616;DHT22;10970;48.714;9.584;2022-09-12T12:44:58;22.70;99.90
21616;DHT22;10970;48.714;9.584;2022-09-12T12:47:31;22.80;99.90
21616;DHT22;10970;48.714;9.584;2022-09-12T12:50:24;22.60;99.90
21616;DHT22;10970;48.714;9.584;2022-09-12T12:53:05;22.70;99.90
21616;DHT22;10970;48.714;9.584;2022-09-12T12:57:59;22.50;99.90
21616;DHT22;10970;48.714;9.584;2022-09-12T13:00:30;22.40;99.90
21616;DHT22;10970;48.714;9.584;2022-09-12T13:05:59;22.70;99.90
21616;DHT22;10970;48.714;9.584;2022-09-12T13:08:35;22.70;99.90
21616;DHT22;10970;48.714;9.584;2022-09-12T13:11:26;22.60;99.90
21616;DHT22;10970;48.714;9.584;2022-09-12T13:13:58;22.60;99.90
21616;DHT22;10970;48.714;9.584;2022-09-12T13:16:52;22.50;99.90
21616;DHT22;10970;48.714;9.584;2022-09-12T13:19:25;22.50;99.90
21616;DHT22;10970;48.714;9.584;2022-09-12T13:22:06;22.60;99.90
21616;DHT22;10970;48.714;9.584;2022-09-12T13:24:33;22.60;99.90
21616;DHT22;10970;48.714;9.584;2022-09-12T13:27:20;22.60;99.90
21616;DHT22;10970;48.714;9.584;2022-09-12T13:29:46;22.80;99.90
21616;DHT22;10970;48.714;9.584;2022-09-12T13:32:12;22.80;99.90
21616;DHT22;10970;48.714;9.584;2022-09-12T13:42:50;22.90;99.90
21616;DHT22;10970;48.714;9.584;2022-09-12T13:45:21;22.80;99.90
21616;DHT22;10970;48.714;9.584;2022-09-12T13:47:54;23.00;99.90
21616;DHT22;10970;48.714;9.584;2022-09-12T13:50:27;23.00;99.90
21616;DHT22;10970;48.714;9.584;2022-09-12T13:53:11;23.00;99.90
21616;DHT22;10970;48.714;9.584;2022-09-12T13:55:41;23.00;99.90
21616;DHT22;10970;48.714;9.584;2022-09-12T14:01:18;22.80;99.90
21616;DHT22;10970;48.714;9.584;2022-09-12T14:03:52;22.80;99.90
21616;DHT22;10970;48.714;9.584;2022-09-12T14:09:42;22.80;99.90
21616;DHT22;10970;48.714;9.584;2022-09-12T14:12:23;22.90;99.90
21616;DHT22;10970;48.714;9.584;2022-09-12T14:14:50;22.90;99.90
21616;DHT22;10970;48.714;9.584;2022-09-12T14:17:22;22.80;99.90
21616;DHT22;10970;48.714;9.584;2022-09-12T14:19:50;23.10;99.90
21616;DHT22;10970;48.714;9.584;2022-09-12T14:22:17;23.20;99.90
21616;DHT22;10970;48.714;9.584;2022-09-12T14:24:47;23.10;99.90
21616;DHT22;10970;48.714;9.584;2022-09-12T14:27:17;23.00;99.90
21616;DHT22;10970;48.714;9.584;2022-09-12T14:29:44;23.10;99.90
21616;DHT22;10970;48.714;9.584;2022-09-12T14:32:23;23.30;99.90
21616;DHT22;10970;48.714;9.584;2022-09-12T14:37:37;23.20;99.90
21616;DHT22;10970;48.714;9.584;2022-09-12T14:40:18;23.40;99.90
21616;DHT22;10970;48.714;9.584;2022-09-12T14:42:45;23.20;99.90
21616;DHT22;10970;48.714;9.584;2022-09-12T14:45:34;23.00;99.90
21616;DHT22;10970;48.714;9.584;2022-09-12T14:48:03;23.00;99.90
21616;DHT22;10970;48.714;9.584;2022-09-12T14:50:34;22.90;99.90
21616;DHT22;10970;48.714;9.584;2022-09-12T14:53:05;22.90;99.90
21616;DHT22;10970;48.714;9.584;2022-09-12T14:55:33;22.80;99.90
21616;DHT22;10970;48.714;9.584;2022-09-12T15:00:56;22.80;99.90
21616;DHT22;10970;48.714;9.584;2022-09-12T15:03:37;23.10;99.90
21616;DHT22;10970;48.714;9.584;2022-09-12T15:06:29;22.90;99.90
21616;DHT22;10970;48.714;9.584;2022-09-12T15:08:58;22.80;99.90
21616;DHT22;10970;48.714;9.584;2022-09-12T15:11:25;22.90;99.90
21616;DHT22;10970;48.714;9.584;2022-09-12T15:13:50;22.90;99.90
21616;DHT22;10970;48.714;9.584;2022-09-12T15:16:16;22.80;99.90
21616;DHT22;10970;48.714;9.584;2022-09-12T15:18:42;22.90;99.90
21616;DHT22;10970;48.714;9.584;2022-09-12T15:21:18;22.70;99.90
21616;DHT22;10970;48.714;9.584;2022-09-12T15:23:49;22.90;99.90
21616;DHT22;10970;48.714;9.584;2022-09-12T15:26:20;22.90;99.90
21616;DHT22;10970;48.714;9.584;2022-09-12T15:28:47;22.90;99.90
21616;DHT22;10970;48.714;9.584;2022-09-12T15:34:04;23.00;99.90
21616;DHT22;10970;48.714;9.584;2022-09-12T15:36:29;23.00;99.90
21616;DHT22;10970;48.714;9.584;2022-09-12T15:38:55;23.00;99.90
21616;DHT22;10970;48.714;9.584;2022-09-12T15:41:27;23.00;99.90
21616;DHT22;10970;48.714;9.584;2022-09-12T15:43:54;23.10;99.90
21616;DHT22;10970;48.714;9.584;2022-09-12T15:46:19;23.30;99.90
21616;DHT22;10970;48.714;9.584;2022-09-12T15:48:45;23.10;99.90
21616;DHT22;10970;48.714;9.584;2022-09-12T15:51:13;23.00;99.90
21616;DHT22;10970;48.714;9.584;2022-09-12T15:53:39;23.10;99.90
21616;DHT22;10970;48.714;9.584;2022-09-12T15:56:05;23.00;99.90
21616;DHT22;10970;48.714;9.584;2022-09-12T15:58:31;23.00;99.90
21616;DHT22;10970;48.714;9.584;2022-09-12T16:00:56;23.20;99.90
21616;DHT22;10970;48.714;9.584;2022-09-12T16:03:25;23.20;99.90
21616;DHT22;10970;48.714;9.584;2022-09-12T16:05:56;23.00;99.90
21616;DHT22;10970;48.714;9.584;2022-09-12T16:08:22;23.00;99.90
21616;DHT22;10970;48.714;9.584;2022-09-12T16:11:02;23.00;99.90
21616;DHT22;10970;48.714;9.584;2022-09-12T16:13:31;23.00;99.90
21616;DHT22;10970;48.714;9.584;2022-09-12T16:15:58;22.90;99.90
21616;DHT22;10970;48.714;9.584;2022-09-12T16:18:24;23.00;99.90
21616;DHT22;10970;48.714;9.584;2022-09-12T16:20:54;22.90;99.90
21616;DHT22;10970;48.714;9.584;2022-09-12T16:23:20;22.90;99.90
21616;DHT22;10970;48.714;9.584;2022-09-12T16:25:58;23.00;99.90
21616;DHT22;10970;48.714;9.584;2022-09-12T16:28:24;22.90;99.90
21616;DHT22;10970;48.714;9.584;2022-09-12T16:30:58;22.80;99.90
21616;DHT22;10970;48.714;9.584;2022-09-12T16:33:24;22.70;99.90
21616;DHT22;10970;48.714;9.584;2022-09-12T16:35:50;22.70;99.90
21616;DHT22;10970;48.714;9.584;2022-09-12T16:38:22;22.60;99.90
21616;DHT22;10970;48.714;9.584;2022-09-12T16:40:48;22.40;99.90
21616;DHT22;10970;48.714;9.584;2022-09-12T16:43:14;22.40;99.90
21616;DHT22;10970;48.714;9.584;2022-09-12T16:45:43;22.30;99.90
21616;DHT22;10970;48.714;9.584;2022-09-12T16:48:09;22.30;99.90
21616;DHT22;10970;48.714;9.584;2022-09-12T16:50:34;22.30;99.90
21616;DHT22;10970;48.714;9.584;2022-09-12T16:53:00;22.10;99.90
21616;DHT22;10970;48.714;9.584;2022-09-12T16:55:26;21.90;99.90
21616;DHT22;10970;48.714;9.584;2022-09-12T16:57:53;21.80;99.90
21616;DHT22;10970;48.714;9.584;2022-09-12T17:00:19;21.80;99.90
21616;DHT22;10970;48.714;9.584;2022-09-12T17:02:45;21.90;99.90
21616;DHT22;10970;48.714;9.584;2022-09-12T17:05:13;21.70;99.90
21616;DHT22;10970;48.714;9.584;2022-09-12T17:07:40;21.70;99.90
21616;DHT22;10970;48.714;9.584;2022-09-12T17:10:06;21.50;99.90
21616;DHT22;10970;48.714;9.584;2022-09-12T17:12:33;21.50;99.90
21616;DHT22;10970;48.714;9.584;2022-09-12T17:14:58;21.30;99.90
21616;DHT22;10970;48.714;9.584;2022-09-12T17:17:24;21.30;99.90
21616;DHT22;10970;48.714;9.584;2022-09-12T17:19:50;21.30;99.90
21616;DHT22;10970;48.714;9.584;2022-09-12T17:22:15;21.20;99.90
21616;DHT22;10970;48.714;9.584;2022-09-12T17:24:41;21.10;99.90
21616;DHT22;10970;48.714;9.584;2022-09-12T17:27:07;21.00;99.90
21616;DHT22;10970;48.714;9.584;2022-09-12T17:29:33;21.00;99.90
21616;DHT22;10970;48.714;9.584;2022-09-12T17:32:00;20.90;99.90
21616;DHT22;10970;48.714;9.584;2022-09-12T17:34:26;20.80;99.90
21616;DHT22;10970;48.714;9.584;2022-09-12T17:36:52;20.90;99.90
21616;DHT22;10970;48.714;9.584;2022-09-12T17:39:17;20.70;99.90
21616;DHT22;10970;48.714;9.584;2022-09-12T17:41:43;20.60;99.90
21616;DHT22;10970;48.714;9.584;2022-09-12T17:44:11;20.60;99.90
21616;DHT22;10970;48.714;9.584;2022-09-12T17:46:38;20.30;99.90
21616;DHT22;10970;48.714;9.584;2022-09-12T17:49:12;20.20;99.90
21616;DHT22;10970;48.714;9.584;2022-09-12T17:51:39;20.00;99.90
21616;DHT22;10970;48.714;9.584;2022-09-12T17:54:09;19.80;99.90
21616;DHT22;10970;48.714;9.584;2022-09-12T17:56:35;19.60;99.90
21616;DHT22;10970;48.714;9.584;2022-09-12T17:59:02;19.60;99.90
21616;DHT22;10970;48.714;9.584;2022-09-12T18:01:28;19.60;99.90
21616;DHT22;10970;48.714;9.584;2022-09-12T18:04:13;19.50;99.90
21616;DHT22;10970;48.714;9.584;2022-09-12T18:06:40;19.20;99.90
21616;DHT22;10970;48.714;9.584;2022-09-12T18:09:12;19.10;99.90
21616;DHT22;10970;48.714;9.584;2022-09-12T18:11:38;19.00;99.90
21616;DHT22;10970;48.714;9.584;2022-09-12T18:14:03;18.90;99.90
21616;DHT22;10970;48.714;9.584;2022-09-12T18:16:29;18.90;99.90
21616;DHT22;10970;48.714;9.584;2022-09-12T18:18:58;19.00;99.90
21616;DHT22;10970;48.714;9.584;2022-09-12T18:21:26;19.10;99.90
21616;DHT22;10970;48.714;9.584;2022-09-12T18:23:57;19.10;99.90
21616;DHT22;10970;48.714;9.584;2022-09-12T18:26:27;19.00;99.90
21616;DHT22;10970;48.714;9.584;2022-09-12T18:28:53;19.00;99.90
21616;DHT22;10970;48.714;9.584;2022-09-12T18:31:21;19.00;99.90